createdAt,value
2023-01-15T00:00:45.686Z,6.57
2023-01-15T00:03:17.426Z,6.61
2023-01-15T00:05:48.718Z,6.64
2023-01-15T00:08:20.063Z,6.54
2023-01-15T00:10:51.347Z,6.53
2023-01-15T00:13:22.966Z,6.39
2023-01-15T00:15:54.396Z,6.44
2023-01-15T00:18:25.692Z,6.45
2023-01-15T00:21:04.777Z,6.44
2023-01-15T00:23:54.826Z,6.43
2023-01-15T00:26:48.464Z,6.41
2023-01-15T00:29:20.526Z,6.39
2023-01-15T00:31:58.535Z,6.42
2023-01-15T00:34:31.062Z,6.47
2023-01-15T00:37:04.426Z,6.44
2023-01-15T00:39:35.820Z,5.92
2023-01-15T00:42:07.333Z,6.47
2023-01-15T00:44:38.782Z,6.39
2023-01-15T00:47:14.686Z,5.95
2023-01-15T00:49:46.058Z,6.14
2023-01-15T00:52:17.426Z,6.27
2023-01-15T00:54:48.769Z,6.43
2023-01-15T00:57:20.102Z,6.33
2023-01-15T00:59:51.484Z,6.23
2023-01-15T01:02:22.931Z,6.31
2023-01-15T01:04:54.284Z,6.50
2023-01-15T01:07:25.634Z,6.49
2023-01-15T01:09:56.915Z,6.46
2023-01-15T01:12:28.500Z,6.49
2023-01-15T01:14:59.818Z,6.53
2023-01-15T01:17:31.153Z,6.37
2023-01-15T01:20:02.616Z,6.09
2023-01-15T01:22:34.015Z,6.11
2023-01-15T01:25:05.777Z,6.30
2023-01-15T01:27:37.122Z,6.31
2023-01-15T01:30:09.330Z,6.42
2023-01-15T01:32:43.899Z,6.43
2023-01-15T01:35:15.261Z,6.08
2023-01-15T01:37:51.091Z,6.28
2023-01-15T01:40:22.745Z,6.12
2023-01-15T01:42:54.179Z,6.46
2023-01-15T01:45:28.831Z,6.08
2023-01-15T01:48:06.536Z,6.45
2023-01-15T01:50:40.076Z,6.50
2023-01-15T01:53:17.642Z,6.39
2023-01-15T01:55:50.477Z,6.12
2023-01-15T01:58:24.652Z,5.68
2023-01-15T02:00:56.461Z,6.42
2023-01-15T02:03:33.353Z,6.34
2023-01-15T02:06:09.091Z,6.30
2023-01-15T02:08:40.730Z,6.33
2023-01-15T02:11:16.954Z,6.40
2023-01-15T02:14:11.597Z,6.43
2023-01-15T02:17:01.677Z,6.22
2023-01-15T02:19:57.678Z,6.37
2023-01-15T02:22:41.222Z,6.22
2023-01-15T02:25:23.864Z,6.36
2023-01-15T02:28:10.289Z,6.25
2023-01-15T02:30:45.813Z,6.35
2023-01-15T02:33:24.145Z,6.33
2023-01-15T02:36:06.425Z,6.16
2023-01-15T02:38:43.680Z,6.34
2023-01-15T02:41:19.049Z,6.34
2023-01-15T02:43:53.820Z,6.31
2023-01-15T02:46:29.836Z,6.36
2023-01-15T02:49:05.497Z,6.36
2023-01-15T02:51:44.327Z,6.37
2023-01-15T02:54:17.342Z,6.37
2023-01-15T02:56:49.772Z,6.36
2023-01-15T02:59:30.271Z,6.36
2023-01-15T03:02:05.512Z,6.24
2023-01-15T03:04:46.444Z,6.34
2023-01-15T03:07:45.219Z,6.34
2023-01-15T03:10:16.990Z,6.25
2023-01-15T03:13:03.579Z,6.32
2023-01-15T03:16:14.356Z,6.28
2023-01-15T03:18:52.151Z,6.33
2023-01-15T03:21:31.193Z,6.23
2023-01-15T03:24:06.227Z,6.31
2023-01-15T03:26:37.592Z,6.22
2023-01-15T03:29:11.036Z,6.39
2023-01-15T03:31:44.669Z,6.39
2023-01-15T03:34:16.087Z,6.41
2023-01-15T03:36:47.489Z,6.27
2023-01-15T03:39:18.839Z,6.27
2023-01-15T03:42:08.816Z,6.25
2023-01-15T03:44:48.542Z,6.30
2023-01-15T03:47:53.914Z,6.30
2023-01-15T03:50:47.812Z,6.21
2023-01-15T03:53:29.428Z,6.29
2023-01-15T03:56:12.873Z,6.21
2023-01-15T03:58:56.352Z,6.30
2023-01-15T04:01:35.005Z,6.26
2023-01-15T04:04:07.204Z,6.00
2023-01-15T04:06:40.083Z,6.15
2023-01-15T04:09:14.178Z,6.09
2023-01-15T04:11:47.006Z,6.06
2023-01-15T04:14:18.362Z,5.97
2023-01-15T04:16:49.617Z,5.86
2023-01-15T04:19:21.251Z,5.91
2023-01-15T04:21:52.532Z,6.00
2023-01-15T04:24:23.954Z,5.88
2023-01-15T04:26:55.251Z,5.89
2023-01-15T04:29:26.519Z,5.88
2023-01-15T04:31:58.021Z,5.87
2023-01-15T04:34:29.912Z,6.04
2023-01-15T04:37:01.195Z,5.75
2023-01-15T04:39:32.811Z,6.03
2023-01-15T04:42:22.657Z,6.05
2023-01-15T04:44:54.934Z,6.21
2023-01-15T04:47:26.255Z,6.12
2023-01-15T04:49:57.575Z,6.04
2023-01-15T04:52:28.847Z,6.21
2023-01-15T04:55:00.174Z,6.17
2023-01-15T04:57:31.493Z,6.02
2023-01-15T05:00:03.944Z,6.07
2023-01-15T05:02:35.345Z,6.03
2023-01-15T05:05:07.215Z,6.04
2023-01-15T05:07:38.574Z,6.02
2023-01-15T05:10:10.473Z,5.93
2023-01-15T05:12:41.739Z,5.73
2023-01-15T05:15:13.011Z,5.63
2023-01-15T05:17:44.254Z,5.58
2023-01-15T05:20:15.637Z,5.64
2023-01-15T05:22:46.906Z,5.52
2023-01-15T05:25:18.171Z,5.58
2023-01-15T05:27:49.436Z,5.55
2023-01-15T05:30:20.800Z,5.54
2023-01-15T05:32:52.149Z,5.54
2023-01-15T05:35:23.425Z,5.63
2023-01-15T05:37:54.670Z,5.41
2023-01-15T05:40:26.032Z,5.37
2023-01-15T05:42:57.470Z,5.48
2023-01-15T05:45:28.743Z,5.51
2023-01-15T05:48:00.015Z,5.41
2023-01-15T05:50:31.300Z,5.42
2023-01-15T05:53:03.042Z,5.47
2023-01-15T05:55:34.315Z,5.54
2023-01-15T05:58:05.589Z,5.67
2023-01-15T06:00:36.861Z,5.65
2023-01-15T06:03:08.144Z,5.62
2023-01-15T06:05:39.418Z,5.61
2023-01-15T06:08:10.713Z,5.64
2023-01-15T06:10:45.041Z,5.59
2023-01-15T06:13:17.521Z,5.51
2023-01-15T06:15:48.817Z,5.52
2023-01-15T06:18:20.203Z,5.47
2023-01-15T06:20:51.569Z,5.60
2023-01-15T06:23:22.920Z,5.48
2023-01-15T06:25:54.224Z,5.39
2023-01-15T06:28:25.521Z,5.52
2023-01-15T06:30:57.110Z,5.62
2023-01-15T06:33:28.429Z,5.66
2023-01-15T06:36:04.020Z,5.59
2023-01-15T06:38:35.336Z,5.80
2023-01-15T06:41:29.718Z,5.84
2023-01-15T06:44:19.946Z,5.78
2023-01-15T06:47:10.751Z,5.81
2023-01-15T06:49:42.061Z,5.81
2023-01-15T06:52:13.418Z,5.66
2023-01-15T06:54:44.707Z,5.86
2023-01-15T06:57:16.050Z,5.85
2023-01-15T06:59:50.956Z,5.84
2023-01-15T07:02:22.385Z,5.84
2023-01-15T07:04:53.690Z,5.67
2023-01-15T07:07:25.168Z,5.74
2023-01-15T07:09:56.441Z,5.78
2023-01-15T07:12:27.755Z,5.83
2023-01-15T07:14:59.031Z,5.73
2023-01-15T07:17:30.316Z,5.85
2023-01-15T07:20:01.596Z,5.92
2023-01-15T07:22:33.102Z,5.95
2023-01-15T07:25:04.919Z,5.95
2023-01-15T07:27:36.185Z,5.96
2023-01-15T07:30:08.353Z,5.97
2023-01-15T07:32:39.699Z,5.96
2023-01-15T07:35:11.051Z,6.05
2023-01-15T07:37:43.990Z,6.12
2023-01-15T07:40:15.340Z,6.01
2023-01-15T07:43:05.375Z,6.14
2023-01-15T07:45:58.111Z,6.16
2023-01-15T07:48:48.570Z,6.20
2023-01-15T07:51:19.855Z,6.10
2023-01-15T07:53:51.150Z,6.18
2023-01-15T07:56:22.443Z,6.19
2023-01-15T07:58:53.714Z,6.25
2023-01-15T08:01:25.088Z,6.19
2023-01-15T08:03:56.431Z,6.22
2023-01-15T08:06:27.711Z,6.15
2023-01-15T08:08:59.000Z,6.08
2023-01-15T08:11:49.127Z,6.13
2023-01-15T08:14:39.115Z,6.02
2023-01-15T08:17:10.396Z,6.06
2023-01-15T08:19:41.760Z,6.07
2023-01-15T08:22:13.056Z,6.02
2023-01-15T08:24:44.394Z,5.96
2023-01-15T08:27:15.783Z,5.84
2023-01-15T08:29:47.116Z,5.79
2023-01-15T08:32:18.413Z,5.81
2023-01-15T08:34:49.674Z,5.80
2023-01-15T08:37:21.480Z,5.84
2023-01-15T08:39:55.496Z,5.90
2023-01-15T08:42:28.256Z,5.87
2023-01-15T08:44:59.528Z,5.70
2023-01-15T08:47:32.379Z,5.64
2023-01-15T08:50:05.119Z,5.69
2023-01-15T08:52:38.556Z,5.65
2023-01-15T08:55:10.153Z,5.51
2023-01-15T08:57:41.479Z,5.57
2023-01-15T09:00:13.307Z,5.58
2023-01-15T09:02:44.569Z,5.54
2023-01-15T09:05:15.973Z,5.57
2023-01-15T09:07:47.363Z,5.74
2023-01-15T09:10:18.865Z,5.79
2023-01-15T09:12:50.166Z,5.60
2023-01-15T09:15:21.454Z,5.68
2023-01-15T09:17:52.894Z,5.57
2023-01-15T09:20:24.414Z,5.48
2023-01-15T09:22:55.705Z,5.26
2023-01-15T09:25:27.151Z,5.34
2023-01-15T09:27:58.496Z,5.29
2023-01-15T09:30:30.017Z,5.23
2023-01-15T09:33:01.380Z,5.20
2023-01-15T09:35:32.757Z,5.18
2023-01-15T09:38:04.249Z,5.02
2023-01-15T09:40:52.292Z,5.16
2023-01-15T09:44:08.802Z,5.19
2023-01-15T09:47:03.305Z,5.21
2023-01-15T09:49:45.238Z,5.28
2023-01-15T09:52:50.513Z,5.27
2023-01-15T09:55:29.193Z,5.28
2023-01-15T09:58:05.976Z,5.44
2023-01-15T10:00:40.841Z,5.42
2023-01-15T10:03:26.628Z,5.58
2023-01-15T10:06:21.221Z,5.64
2023-01-15T10:09:18.371Z,5.63
2023-01-15T10:12:15.743Z,5.62
2023-01-15T10:14:58.915Z,5.72
2023-01-15T10:17:47.574Z,5.80
2023-01-15T10:20:55.111Z,5.92
2023-01-15T10:23:36.572Z,5.96
2023-01-15T10:26:42.942Z,6.00
2023-01-15T10:29:36.976Z,6.07
2023-01-15T10:32:14.252Z,6.10
2023-01-15T10:35:17.178Z,6.14
2023-01-15T10:37:58.279Z,6.18
2023-01-15T10:40:43.003Z,6.27
2023-01-15T10:43:23.280Z,6.37
2023-01-15T10:46:01.507Z,6.31
2023-01-15T10:48:46.699Z,6.66
2023-01-15T10:51:23.809Z,6.80
2023-01-15T10:54:00.813Z,6.96
2023-01-15T10:56:37.335Z,7.26
2023-01-15T10:59:16.545Z,7.43
2023-01-15T11:01:52.475Z,7.51
2023-01-15T11:04:26.800Z,7.71
2023-01-15T11:07:00.628Z,7.78
2023-01-15T11:09:34.641Z,7.87
2023-01-15T11:12:27.951Z,7.91
2023-01-15T11:15:17.968Z,7.88
2023-01-15T11:18:08.337Z,7.74
2023-01-15T11:20:44.920Z,7.70
2023-01-15T11:23:19.745Z,7.78
2023-01-15T11:25:57.564Z,7.87
2023-01-15T11:28:39.941Z,7.87
2023-01-15T11:31:12.656Z,7.76
2023-01-15T11:33:55.627Z,7.54
2023-01-15T11:36:28.272Z,7.59
2023-01-15T11:38:59.697Z,7.48
2023-01-15T11:41:52.246Z,7.28
2023-01-15T11:44:42.227Z,7.18
2023-01-15T11:47:35.875Z,6.96
2023-01-15T11:50:37.150Z,6.62
2023-01-15T11:53:18.448Z,6.09
2023-01-15T11:55:52.377Z,5.59
2023-01-15T11:58:24.916Z,5.37
2023-01-15T12:00:59.865Z,5.15
2023-01-15T12:03:36.234Z,5.09
2023-01-15T12:06:10.840Z,4.90
2023-01-15T12:08:55.926Z,4.79
2023-01-15T12:11:47.562Z,4.90
2023-01-15T12:14:57.692Z,4.90
2023-01-15T12:17:54.719Z,4.92
2023-01-15T12:21:05.163Z,4.96
2023-01-15T12:23:56.659Z,4.99
2023-01-15T12:26:34.614Z,4.96
2023-01-15T12:29:24.270Z,4.96
2023-01-15T12:32:03.045Z,5.14
2023-01-15T12:34:52.859Z,5.18
2023-01-15T12:37:29.643Z,5.19
2023-01-15T12:40:18.668Z,5.30
2023-01-15T12:43:12.134Z,5.39
2023-01-15T12:45:52.201Z,5.53
2023-01-15T12:49:04.844Z,5.66
2023-01-15T12:52:04.488Z,5.71
2023-01-15T12:54:44.692Z,5.54
2023-01-15T12:57:21.577Z,5.53
2023-01-15T13:00:00.839Z,5.33
2023-01-15T13:02:53.338Z,5.49
2023-01-15T13:05:47.673Z,5.57
2023-01-15T13:08:56.807Z,5.85
2023-01-15T13:11:28.135Z,5.95
2023-01-15T13:13:59.585Z,5.98
2023-01-15T13:17:06.298Z,6.00
2023-01-15T13:19:59.462Z,5.92
2023-01-15T13:22:36.522Z,6.01
2023-01-15T13:25:27.239Z,5.95
2023-01-15T13:28:18.538Z,6.05
2023-01-15T13:31:14.280Z,6.04
2023-01-15T13:33:58.217Z,5.98
2023-01-15T13:36:40.471Z,5.91
2023-01-15T13:39:18.863Z,5.70
2023-01-15T13:42:12.221Z,5.69
2023-01-15T13:44:52.895Z,5.73
2023-01-15T13:47:26.908Z,5.72
2023-01-15T13:50:04.595Z,5.72
2023-01-15T13:52:37.114Z,5.76
2023-01-15T13:55:32.791Z,5.68
2023-01-15T13:58:21.275Z,5.80
2023-01-15T14:01:09.005Z,5.69
2023-01-15T14:03:40.586Z,5.71
2023-01-15T14:06:11.860Z,5.61
2023-01-15T14:08:44.999Z,5.48
2023-01-15T14:11:36.952Z,5.59
2023-01-15T14:14:29.683Z,5.78
2023-01-15T14:17:35.047Z,5.85
2023-01-15T14:20:40.849Z,5.92
2023-01-15T14:23:30.244Z,5.92
2023-01-15T14:26:24.739Z,6.06
2023-01-15T14:29:26.037Z,6.13
2023-01-15T14:32:28.633Z,6.23
2023-01-15T14:35:01.940Z,6.27
2023-01-15T14:37:44.385Z,6.22
2023-01-15T14:40:27.974Z,6.35
2023-01-15T14:43:07.625Z,6.37
2023-01-15T14:45:44.894Z,6.39
2023-01-15T14:48:28.478Z,6.41
2023-01-15T14:51:24.636Z,6.45
2023-01-15T14:54:01.144Z,6.48
2023-01-15T14:56:40.619Z,6.41
2023-01-15T14:59:25.953Z,6.50
2023-01-15T15:02:02.424Z,6.52
2023-01-15T15:04:40.490Z,6.54
2023-01-15T15:07:18.529Z,6.55
2023-01-15T15:10:04.658Z,6.54
2023-01-15T15:12:43.911Z,6.55
2023-01-15T15:15:39.302Z,6.56
2023-01-15T15:18:36.213Z,6.57
2023-01-15T15:21:19.909Z,6.58
2023-01-15T15:24:16.686Z,6.59
2023-01-15T15:26:48.103Z,6.48
2023-01-15T15:29:21.838Z,6.45
2023-01-15T15:31:57.003Z,6.52
2023-01-15T15:34:40.371Z,6.57
2023-01-15T15:37:24.734Z,6.55
2023-01-15T15:40:04.995Z,6.53
2023-01-15T15:43:04.325Z,6.43
2023-01-15T15:45:53.993Z,6.37
2023-01-15T15:48:43.230Z,6.22
2023-01-15T15:51:34.367Z,6.23
2023-01-15T15:54:12.010Z,6.08
2023-01-15T15:56:58.550Z,6.01
2023-01-15T15:59:37.947Z,5.81
2023-01-15T16:02:21.278Z,5.78
2023-01-15T16:04:55.155Z,5.82
2023-01-15T16:07:33.389Z,5.82
2023-01-15T16:10:34.960Z,5.82
2023-01-15T16:13:12.313Z,5.73
2023-01-15T16:15:43.937Z,5.73
2023-01-15T16:18:23.995Z,5.81
2023-01-15T16:20:56.836Z,5.73
2023-01-15T16:23:30.188Z,5.79
2023-01-15T16:26:19.800Z,5.75
2023-01-15T16:28:55.132Z,5.74
2023-01-15T16:31:28.523Z,5.71
2023-01-15T16:34:00.054Z,5.63
2023-01-15T16:36:41.238Z,5.54
2023-01-15T16:39:30.726Z,5.45
2023-01-15T16:42:02.200Z,5.34
2023-01-15T16:44:46.687Z,5.29
2023-01-15T16:47:24.133Z,5.18
2023-01-15T16:50:26.246Z,5.09
2023-01-15T16:53:02.316Z,5.05
2023-01-15T16:55:33.637Z,5.03
2023-01-15T16:58:14.104Z,5.02
2023-01-15T17:00:51.792Z,5.02
2023-01-15T17:03:27.957Z,4.90
2023-01-15T17:06:05.786Z,4.99
2023-01-15T17:08:39.189Z,4.98
2023-01-15T17:11:25.717Z,4.93
2023-01-15T17:14:20.519Z,4.87
2023-01-15T17:17:27.667Z,5.01
2023-01-15T17:19:59.077Z,4.96
2023-01-15T17:22:33.049Z,4.81
2023-01-15T17:25:20.616Z,4.97
2023-01-15T17:27:55.914Z,4.89
2023-01-15T17:30:31.758Z,5.01
2023-01-15T17:33:07.384Z,5.02
2023-01-15T17:35:41.147Z,5.04
2023-01-15T17:38:13.777Z,4.99
2023-01-15T17:40:45.627Z,5.06
2023-01-15T17:43:17.056Z,5.10
2023-01-15T17:45:48.631Z,5.08
2023-01-15T17:48:20.236Z,4.98
2023-01-15T17:50:51.866Z,5.13
2023-01-15T17:53:23.327Z,5.05
2023-01-15T17:56:13.270Z,5.14
2023-01-15T17:59:03.054Z,5.14
2023-01-15T18:01:57.976Z,5.12
2023-01-15T18:04:54.134Z,5.20
2023-01-15T18:07:33.555Z,5.19
2023-01-15T18:10:07.578Z,5.15
2023-01-15T18:12:38.933Z,5.04
2023-01-15T18:15:10.791Z,5.08
2023-01-15T18:17:42.952Z,5.17
2023-01-15T18:20:14.435Z,5.20
2023-01-15T18:22:45.896Z,5.18
2023-01-15T18:25:17.495Z,5.23
2023-01-15T18:27:50.093Z,5.28
2023-01-15T18:30:21.531Z,5.32
2023-01-15T18:32:52.954Z,5.32
2023-01-15T18:35:24.323Z,5.35
2023-01-15T18:37:56.301Z,5.33
2023-01-15T18:40:30.533Z,5.30
2023-01-15T18:43:20.424Z,5.29
2023-01-15T18:46:10.321Z,5.16
2023-01-15T18:48:41.621Z,5.28
2023-01-15T18:51:12.996Z,5.30
2023-01-15T18:53:44.334Z,5.30
2023-01-15T18:56:35.592Z,5.19
2023-01-15T18:59:09.241Z,5.31
2023-01-15T19:01:42.141Z,5.15
2023-01-15T19:04:13.594Z,5.21
2023-01-15T19:06:45.017Z,5.28
2023-01-15T19:09:17.768Z,5.25
2023-01-15T19:11:50.155Z,5.19
2023-01-15T19:14:40.923Z,5.07
2023-01-15T19:17:36.442Z,4.95
2023-01-15T19:20:09.873Z,4.72
2023-01-15T19:22:59.321Z,4.70
2023-01-15T19:25:42.268Z,4.58
2023-01-15T19:28:16.337Z,4.37
2023-01-15T19:31:07.616Z,4.36
2023-01-15T19:33:38.994Z,4.34
2023-01-15T19:36:10.265Z,4.29
2023-01-15T19:38:41.767Z,4.21
2023-01-15T19:41:32.161Z,4.44
2023-01-15T19:44:22.079Z,4.64
2023-01-15T19:47:12.533Z,4.75
2023-01-15T19:50:02.351Z,4.84
2023-01-15T19:52:36.686Z,4.92
2023-01-15T19:55:14.862Z,4.97
2023-01-15T19:57:49.138Z,4.94
2023-01-15T20:00:22.106Z,5.06
2023-01-15T20:02:54.628Z,5.04
2023-01-15T20:05:28.953Z,5.02
2023-01-15T20:08:00.400Z,4.98
2023-01-15T20:10:34.157Z,4.93
2023-01-15T20:13:24.135Z,4.91
2023-01-15T20:15:55.413Z,4.88
2023-01-15T20:18:27.865Z,4.86
2023-01-15T20:20:59.212Z,5.03
2023-01-15T20:23:30.644Z,4.93
2023-01-15T20:26:07.104Z,5.10
2023-01-15T20:28:40.793Z,5.14
2023-01-15T20:31:17.964Z,5.16
2023-01-15T20:33:50.120Z,5.16
2023-01-15T20:36:21.501Z,5.18
2023-01-15T20:38:52.901Z,5.19
2023-01-15T20:41:42.734Z,5.13
2023-01-15T20:44:32.804Z,5.09
2023-01-15T20:47:24.075Z,5.05
2023-01-15T20:49:55.364Z,5.18
2023-01-15T20:52:26.645Z,5.19
2023-01-15T20:54:57.915Z,5.18
2023-01-15T20:57:29.254Z,5.21
2023-01-15T21:00:04.598Z,5.21
2023-01-15T21:02:35.919Z,5.16
2023-01-15T21:05:08.289Z,5.16
2023-01-15T21:07:39.717Z,5.11
2023-01-15T21:10:12.842Z,5.07
2023-01-15T21:12:44.500Z,5.08
2023-01-15T21:15:15.961Z,5.01
2023-01-15T21:17:47.684Z,4.89
2023-01-15T21:20:19.047Z,4.87
2023-01-15T21:22:50.414Z,5.01
2023-01-15T21:25:21.720Z,5.05
2023-01-15T21:27:53.032Z,5.06
2023-01-15T21:30:25.622Z,5.11
2023-01-15T21:32:56.915Z,5.12
2023-01-15T21:35:28.194Z,4.96
2023-01-15T21:37:59.605Z,5.00
2023-01-15T21:40:30.959Z,4.90
2023-01-15T21:43:20.735Z,4.85
2023-01-15T21:45:52.164Z,4.85
2023-01-15T21:48:23.462Z,4.80
2023-01-15T21:50:54.790Z,4.66
2023-01-15T21:53:26.071Z,4.80
2023-01-15T21:55:57.347Z,4.74
2023-01-15T21:58:28.636Z,4.72
2023-01-15T22:00:59.974Z,4.83
2023-01-15T22:03:31.254Z,4.87
2023-01-15T22:06:07.431Z,4.79
2023-01-15T22:08:38.732Z,4.94
2023-01-15T22:11:10.498Z,5.06
2023-01-15T22:13:41.857Z,5.10
2023-01-15T22:16:13.194Z,5.08
2023-01-15T22:18:45.394Z,5.05
2023-01-15T22:21:16.672Z,5.17
2023-01-15T22:23:49.173Z,5.20
2023-01-15T22:26:22.009Z,5.16
2023-01-15T22:28:53.411Z,5.25
2023-01-15T22:31:26.723Z,5.28
2023-01-15T22:33:58.321Z,5.29
2023-01-15T22:36:29.651Z,5.30
2023-01-15T22:39:01.502Z,5.32
2023-01-15T22:41:51.711Z,5.31
2023-01-15T22:44:22.997Z,5.33
2023-01-15T22:46:54.483Z,5.22
2023-01-15T22:49:25.838Z,5.26
2023-01-15T22:51:57.206Z,5.28
2023-01-15T22:54:28.512Z,5.21
2023-01-15T22:56:59.809Z,5.37
2023-01-15T22:59:31.083Z,5.23
2023-01-15T23:02:02.567Z,5.38
2023-01-15T23:04:34.057Z,5.39
2023-01-15T23:07:05.541Z,5.42
2023-01-15T23:09:37.025Z,5.04
2023-01-15T23:12:08.322Z,5.44
2023-01-15T23:14:39.732Z,5.44
2023-01-15T23:17:11.009Z,5.40
2023-01-15T23:19:42.279Z,5.50
2023-01-15T23:22:13.703Z,5.49
2023-01-15T23:24:45.005Z,5.53
2023-01-15T23:27:16.354Z,5.54
2023-01-15T23:29:47.936Z,5.55
2023-01-15T23:32:19.244Z,5.56
2023-01-15T23:34:50.721Z,5.58
2023-01-15T23:37:21.983Z,5.52
2023-01-15T23:39:53.247Z,5.61
2023-01-15T23:42:44.770Z,5.50
2023-01-15T23:45:34.517Z,5.63
2023-01-15T23:48:06.231Z,5.57
2023-01-15T23:50:37.492Z,5.64
2023-01-15T23:53:08.776Z,5.57
2023-01-15T23:55:40.084Z,5.68
2023-01-15T23:58:11.357Z,5.70
